Jeanie G — WDB2354 — position and weather

sailwx.info

Track history (hours):
 
Tides and Currents Weather Stations Pressure Air Temp Water Temp Dewpoint Dewpoint Depression Visibility Wind Speed Wind Dir Waves Ship Positions

Jeanie G

More information available from US FCC via Universal Licensing System and Coast Guard Vessel Documentation Center.

Last reported at 2014-Aug-20 09:29 UTC. Time now 2014-Aug-29 10:22 UTC.
Position N 29°55' W 090°04'.
Warning: this ship's position is 9 days out of date.

MMSI: 366875010.

Date/timePositionNaut miles runAvg speedWind from/ knotsBaromVisibWave heightAir tempDewpointWater temp
2014-Aug-20 09:29N 29°55' W 090°04'5 4.2
2014-Aug-20 08:11N 29°57' W 090°10'4 2.1
2014-Aug-20 06:23N 29°58' W 090°14'  
2014-Aug-15 11:26N 29°40' W 090°13'12 3.9
2014-Aug-15 08:29N 29°33' W 090°24'4 4.6
2014-Aug-15 07:33N 29°34' W 090°29'5 4.6
2014-Aug-15 06:33N 29°34' W 090°34'4 4.5
2014-Aug-15 05:33N 29°35' W 090°39'4 3.1
2014-Aug-15 04:19N 29°35' W 090°43'4 3.7
2014-Aug-15 03:20N 29°32' W 090°46'4 5.0
2014-Aug-15 02:33N 29°32' W 090°50'5 5.0
2014-Aug-15 01:33N 29°34' W 090°56'5 5.0
2014-Aug-15 00:33N 29°37' W 090°60'5 4.9
2014-Aug-14 23:33N 29°38' W 091°06'1 1.4
2014-Aug-14 22:33N 29°40' W 091°06'0 0.0
2014-Aug-14 21:30N 29°40' W 091°06'0 0.0
2014-Aug-14 20:14N 29°40' W 091°06'0 0.0
2014-Aug-14 19:30N 29°40' W 091°06'0 0.0
2014-Aug-14 18:28N 29°40' W 091°06'0 0.0
2014-Aug-14 17:33N 29°40' W 091°06'0 0.0
2014-Aug-14 16:19N 29°40' W 091°06'0 0.0
2014-Aug-14 15:33N 29°40' W 091°06'0 0.0
2014-Aug-14 14:28N 29°40' W 091°06'0 0.0
2014-Aug-14 13:17N 29°40' W 091°06'0 0.2
2014-Aug-14 12:33N 29°40' W 091°06'1 1.3
2014-Aug-14 11:33N 29°39' W 091°08'4 3.6
2014-Aug-14 10:33N 29°41' W 091°11'3 2.9
2014-Aug-14 09:33N 29°40' W 091°14'0 0.0
2014-Aug-14 08:33N 29°40' W 091°14'0 0.0
2014-Aug-14 07:33N 29°40' W 091°14'0 0.0
2014-Aug-14 06:33N 29°40' W 091°14'0 0.0
2014-Aug-14 05:33N 29°40' W 091°14'0 0.0
2014-Aug-14 04:33N 29°40' W 091°14'0 0.0
2014-Aug-14 03:33N 29°40' W 091°14'1 0.6
2014-Aug-14 02:33N 29°40' W 091°14'3 3.0
2014-Aug-14 01:33N 29°41' W 091°10'2 2.4
2014-Aug-14 00:33N 29°40' W 091°08'3 2.6
2014-Aug-13 23:33N 29°38' W 091°06'3 3.2
2014-Aug-13 22:33N 29°37' W 091°02'3 3.0
2014-Aug-13 21:33N 29°37' W 090°59'13 2.9
2014-Aug-13 17:05N 29°34' W 090°44'4 2.3
2014-Aug-13 15:29N 29°37' W 090°42'3 2.7
2014-Aug-13 14:25N 29°36' W 090°39'3 3.2
2014-Aug-13 13:33N 29°35' W 090°36'3 3.2
2014-Aug-13 12:33N 29°34' W 090°32'3 3.3
2014-Aug-13 11:33N 29°34' W 090°29'3 3.2
2014-Aug-13 10:33N 29°33' W 090°25'32 0.7
2014-Aug-11 10:31N 29°56' W 090°00'  
Track history (hours):
 
Tides and Currents Weather Stations Pressure Air Temp Water Temp Dewpoint Dewpoint Depression Visibility Wind Speed Wind Dir Waves Ship Positions

Jeanie G

More information available from US FCC via Universal Licensing System and Coast Guard Vessel Documentation Center.

Last reported at 2014-Aug-20 09:29 UTC. Time now 2014-Aug-29 10:22 UTC.
Position N 29°55' W 090°04'.
Warning: this ship's position is 9 days out of date.

MMSI: 366875010.

Date/timePositionNaut miles runAvg speedWind from/ knotsBaromVisibWave heightAir tempDewpointWater temp
2014-Aug-20 09:29N 29°55' W 090°04'5 4.2
2014-Aug-20 08:11N 29°57' W 090°10'4 2.1
2014-Aug-20 06:23N 29°58' W 090°14'  
2014-Aug-15 11:26N 29°40' W 090°13'12 3.9
2014-Aug-15 08:29N 29°33' W 090°24'4 4.6
2014-Aug-15 07:33N 29°34' W 090°29'5 4.6
2014-Aug-15 06:33N 29°34' W 090°34'4 4.5
2014-Aug-15 05:33N 29°35' W 090°39'4 3.1
2014-Aug-15 04:19N 29°35' W 090°43'4 3.7
2014-Aug-15 03:20N 29°32' W 090°46'4 5.0
2014-Aug-15 02:33N 29°32' W 090°50'5 5.0
2014-Aug-15 01:33N 29°34' W 090°56'5 5.0
2014-Aug-15 00:33N 29°37' W 090°60'5 4.9
2014-Aug-14 23:33N 29°38' W 091°06'1 1.4
2014-Aug-14 22:33N 29°40' W 091°06'0 0.0
2014-Aug-14 21:30N 29°40' W 091°06'0 0.0
2014-Aug-14 20:14N 29°40' W 091°06'0 0.0
2014-Aug-14 19:30N 29°40' W 091°06'0 0.0
2014-Aug-14 18:28N 29°40' W 091°06'0 0.0
2014-Aug-14 17:33N 29°40' W 091°06'0 0.0
2014-Aug-14 16:19N 29°40' W 091°06'0 0.0
2014-Aug-14 15:33N 29°40' W 091°06'0 0.0
2014-Aug-14 14:28N 29°40' W 091°06'0 0.0
2014-Aug-14 13:17N 29°40' W 091°06'0 0.2
2014-Aug-14 12:33N 29°40' W 091°06'1 1.3
2014-Aug-14 11:33N 29°39' W 091°08'4 3.6
2014-Aug-14 10:33N 29°41' W 091°11'3 2.9
2014-Aug-14 09:33N 29°40' W 091°14'0 0.0
2014-Aug-14 08:33N 29°40' W 091°14'0 0.0
2014-Aug-14 07:33N 29°40' W 091°14'0 0.0
2014-Aug-14 06:33N 29°40' W 091°14'0 0.0
2014-Aug-14 05:33N 29°40' W 091°14'0 0.0
2014-Aug-14 04:33N 29°40' W 091°14'0 0.0
2014-Aug-14 03:33N 29°40' W 091°14'1 0.6
2014-Aug-14 02:33N 29°40' W 091°14'3 3.0
2014-Aug-14 01:33N 29°41' W 091°10'2 2.4
2014-Aug-14 00:33N 29°40' W 091°08'3 2.6
2014-Aug-13 23:33N 29°38' W 091°06'3 3.2
2014-Aug-13 22:33N 29°37' W 091°02'3 3.0
2014-Aug-13 21:33N 29°37' W 090°59'13 2.9
2014-Aug-13 17:05N 29°34' W 090°44'4 2.3
2014-Aug-13 15:29N 29°37' W 090°42'3 2.7
2014-Aug-13 14:25N 29°36' W 090°39'3 3.2
2014-Aug-13 13:33N 29°35' W 090°36'3 3.2
2014-Aug-13 12:33N 29°34' W 090°32'3 3.3
2014-Aug-13 11:33N 29°34' W 090°29'3 3.2
2014-Aug-13 10:33N 29°33' W 090°25'32 0.7
2014-Aug-11 10:31N 29°56' W 090°00'  

Dump ship's entire track history